Flight Track Log - Related Links

Times and Time Zones

All times are in EDT time to prevent confusion due to time zone crossing. See the UPS105 flight status page for this flight to view local times or setup timezone preferences in your user account.

Time Position Orientation Groundspeed Altitude Reporting Facility
EDT Latitude Longitude Course Direction KTS MPH feet Rate Location/Type
Tue 09:27:28 AM 34.3920 135.1830 234° Southwest 165 190 3,300  Level FlightAware ADS-B
Tue 09:27:58 AM 34.3770 135.1580 234° Southwest 196 226 3,800 1,200 Climbing FlightAware ADS-B
Tue 09:28:28 AM 34.3610 135.1300 235° Southwest 223 257 4,500 1,650 Climbing FlightAware ADS-B
Tue 09:28:38 AM 34.3550 135.1180 239° Southwest 224 258 4,900 1,714 Climbing FlightAware ADS-B
Tue 09:29:03 AM 34.3390 135.0910 234° Southwest 249 287 5,500 1,600 Climbing FlightAware ADS-B
Tue 09:29:23 AM 34.3250 135.0670 235° Southwest 264 304 6,100 2,250 Climbing FlightAware ADS-B
Tue 09:29:43 AM 34.3090 135.0440 230° Southwest 268 308 7,000 2,533 Climbing FlightAware ADS-B
Tue 09:30:08 AM 34.2890 135.0200 225° Southwest 273 314 8,000 2,400 Climbing FlightAware ADS-B
Tue 09:30:23 AM 34.2720 135.0110 204° Southwest 284 327 8,600 2,400 Climbing FlightAware ADS-B
Tue 09:30:53 AM 34.2280 135.0180 173° South 297 342 9,800 1,886 Climbing FlightAware ADS-B
Tue 09:31:33 AM 34.1730 135.0350 166° South 329 379 10,800 1,360 Climbing FlightAware ADS-B
Tue 09:32:08 AM 34.1180 135.0510 166° South 360 414 11,500 1,275 Climbing FlightAware ADS-B
Tue 09:32:53 AM 34.0400 135.0720 167° South 394 453 12,500 1,271 Climbing FlightAware ADS-B
Tue 09:33:33 AM 33.9700 135.0900 168° South 423 487 13,300 1,543 Climbing FlightAware ADS-B
Tue 09:34:03 AM 33.9110 135.1160 160° South 438 504 14,300 1,917 Climbing FlightAware ADS-B
Tue 09:34:45 AM 33.8540 135.1910 132° Southeast 454 522 15,600 2,025 Climbing FlightAware ADS-B
Tue 09:35:23 AM 33.8010 135.2690 129° Southeast 458 527 17,000 2,024 Climbing FlightAware ADS-B
Tue 09:36:08 AM 33.7400 135.3600 129° Southeast 469 540 18,400 1,867 Climbing FlightAware ADS-B
Tue 09:36:53 AM 33.6810 135.4490 129° Southeast 474 545 19,800 1,933 Climbing FlightAware ADS-B
Tue 09:37:38 AM 33.6200 135.5410 129° Southeast 477 549 21,300 1,674 Climbing FlightAware ADS-B
Tue 09:38:19 AM 33.5610 135.6270 129° Southeast 486 559 22,200 1,280 Climbing FlightAware ADS-B
Tue 09:38:53 AM 33.5110 135.7020 129° Southeast 496 571 22,900 1,216 Climbing FlightAware ADS-B
Tue 09:39:33 AM 33.4660 135.7950 120° Southeast 507 583 23,700 1,200 Climbing FlightAware ADS-B
Tue 09:39:48 AM 33.4610 135.8390 98° East 507 583 24,000 1,500 Climbing FlightAware ADS-B
Tue 09:40:33 AM 33.4800 135.9600 79° East 502 578 25,200 1,486 Climbing FlightAware ADS-B
Tue 09:41:33 AM 33.5110 136.1210 77° East 501 577 26,600 1,389 Climbing FlightAware ADS-B
Tue 09:42:08 AM 33.5310 136.2190 76° East 504 580 27,400 1,308 Climbing FlightAware ADS-B
Tue 09:42:51 AM 33.5530 136.3300 77° East 501 577 28,300 1,373 Climbing FlightAware ADS-B
Tue 09:43:31 AM 33.5740 136.4420 77° East 496 571 29,300 1,275 Climbing FlightAware ADS-B
Tue 09:44:11 AM 33.5950 136.5490 77° East 496 571 30,000 1,200 Climbing FlightAware ADS-B
Tue 09:44:51 AM 33.6150 136.6550 77° East 489 563 30,900 1,200 Climbing FlightAware ADS-B
Tue 09:45:36 AM 33.6360 136.7700 78° East 483 556 31,700 1,200 Climbing FlightAware ADS-B
Tue 09:46:11 AM 33.6530 136.8600 77° East 476 548 32,500 1,200 Climbing FlightAware ADS-B
Tue 09:46:41 AM 33.6670 136.9350 77° East 470 541 33,000 375 Climbing FlightAware ADS-B
Tue 09:47:31 AM 33.6920 137.0670 77° East 470 541 33,000  Level FlightAware ADS-B
Tue 09:48:11 AM 33.7110 137.1700 77° East 471 542 33,000  Level FlightAware ADS-B
Tue 09:48:51 AM 33.7300 137.2730 77° East 471 542 33,000  Level FlightAware ADS-B
Tue 09:49:31 AM 33.7490 137.3760 77° East 475 547 33,000  Level FlightAware ADS-B
Tue 09:50:11 AM 33.7680 137.4790 77° East 476 548 33,000  Level FlightAware ADS-B
Tue 09:50:51 AM 33.7870 137.5830 78° East 476 548 33,000  Level FlightAware ADS-B
Tue 09:51:31 AM 33.8050 137.6850 78° East 477 549 33,000  Level FlightAware ADS-B
Tue 09:52:11 AM 33.8240 137.7880 77° East 478 550 33,000  Level FlightAware ADS-B
Tue 09:52:51 AM 33.8430 137.8930 78° East 478 550 33,000  Level FlightAware ADS-B
Tue 09:53:31 AM 33.8610 137.9970 78° East 477 549 33,000  Level FlightAware ADS-B
Tue 09:54:11 AM 33.8800 138.1010 78° East 477 549 33,000  Level FlightAware ADS-B
Tue 09:54:56 AM 33.9010 138.2160 78° East 476 548 33,000  Level FlightAware ADS-B
Tue 09:55:36 AM 33.9260 138.3160 73° East 468 539 33,000  Level FlightAware ADS-B
Tue 09:56:22 AM 33.9730 138.4190 61° Northeast 459 528 33,000  Level FlightAware ADS-B
Tue 09:56:56 AM 34.0120 138.4990 60° Northeast 459 528 33,000  Level FlightAware ADS-B
Tue 09:57:36 AM 34.0560 138.5880 59° Northeast 459 528 33,000  Level FlightAware ADS-B
Tue 09:58:31 AM 34.1150 138.7090 59° Northeast 459 528 33,000  Level FlightAware ADS-B
Tue 09:59:11 AM 34.1580 138.7970 59° Northeast 459 528 33,000  Level FlightAware ADS-B
Tue 09:59:54 AM 34.2040 138.8900 59° Northeast 458 527 33,000  Level FlightAware ADS-B
Tue 10:00:44 AM 34.2580 139.0020 60° Northeast 458 527 33,000  Level FlightAware ADS-B
Tue 10:01:29 AM 34.3070 139.1020 59° Northeast 458 527 33,000  Level FlightAware ADS-B
Tue 10:02:09 AM 34.3500 139.1900 59° Northeast 458 527 33,000  Level FlightAware ADS-B
Tue 10:02:54 AM 34.3980 139.2900 60° Northeast 458 527 33,000  Level FlightAware ADS-B
Tue 10:03:34 AM 34.4410 139.3810 60° Northeast 458 527 33,000  Level FlightAware ADS-B
Tue 10:04:09 AM 34.4790 139.4600 60° Northeast 458 527 33,000  Level FlightAware ADS-B
Tue 10:04:49 AM 34.5220 139.5480 59° Northeast 458 527 33,000  Level FlightAware ADS-B
Tue 10:05:34 AM 34.5690 139.6490 61° Northeast 460 529 33,000  Level FlightAware ADS-B
Tue 10:06:14 AM 34.6120 139.7390 60° Northeast 460 529 33,000  Level FlightAware ADS-B
Tue 10:06:56 AM 34.6550 139.8290 60° Northeast 461 531 33,000  Level FlightAware ADS-B
Tue 10:07:39 AM 34.7030 139.9290 60° Northeast 458 527 33,000  Level FlightAware ADS-B
Tue 10:08:19 AM 34.7460 140.0210 60° Northeast 462 532 33,000  Level FlightAware ADS-B
Tue 10:08:55 AM 34.7820 140.0980 60° Northeast 463 533 33,000  Level FlightAware ADS-B
Tue 10:09:39 AM 34.8300 140.2000 60° Northeast 463 533 33,000  Level FlightAware ADS-B
Tue 10:10:19 AM 34.8730 140.2920 60° Northeast 461 531 33,000  Level FlightAware ADS-B
Tue 10:10:54 AM 34.9100 140.3710 60° Northeast 460 529 33,000  Level FlightAware ADS-B
Tue 10:11:40 AM 34.9600 140.4760 60° Northeast 457 526 33,000  Level FlightAware ADS-B
Tue 10:12:21 AM 35.0020 140.5670 61° Northeast 454 522 33,000  Level FlightAware ADS-B
Tue 10:13:03 AM 35.0450 140.6600 61° Northeast 450 518 33,000  Level FlightAware ADS-B
Tue 10:13:40 AM 35.0830 140.7420 60° Northeast 446 513 33,000  Level FlightAware ADS-B
Tue 10:14:26 AM 35.1290 140.8420 61° Northeast 441 507 33,000  Level FlightAware ADS-B
Tue 10:15:10 AM 35.1720 140.9370 61° Northeast 436 502 33,000  Level FlightAware ADS-B
Tue 10:15:40 AM 35.2020 141.0020 61° Northeast 432 497 33,000  Level FlightAware ADS-B
Tue 10:16:24 AM 35.2450 141.0960 61° Northeast 428 493 33,000  Level FlightAware ADS-B
Tue 10:17:06 AM 35.2850 141.1830 61° Northeast 425 489 33,000  Level FlightAware ADS-B
Tue 10:17:42 AM 35.3190 141.2580 61° Northeast 424 488 33,000  Level FlightAware ADS-B
Tue 10:18:25 AM 35.3600 141.3480 61° Northeast 422 486 33,000  Level FlightAware ADS-B
Tue 10:19:07 AM 35.4000 141.4350 61° Northeast 422 486 33,000  Level FlightAware ADS-B
Tue 10:19:40 AM 35.4320 141.5060 61° Northeast 422 486 33,000  Level FlightAware ADS-B
Tue 10:20:51 AM 35.4990 141.6550 61° Northeast 421 484 33,000  Level FlightAware ADS-B
Tue 10:21:29 AM 35.5350 141.7360 61° Northeast 423 487 33,000  Level FlightAware ADS-B
Tue 10:22:30 AM 35.5920 141.8630 61° Northeast 424 488 33,000  Level FlightAware ADS-B
Tue 10:23:10 AM 35.6300 141.9480 61° Northeast 424 488 33,000  Level FlightAware ADS-B
Tue 10:24:08 AM 35.6850 142.0700 61° Northeast 428 493 33,000  Level FlightAware ADS-B
Tue 10:24:50 AM 35.7250 142.1620 62° Northeast 424 488 33,000  Level FlightAware ADS-B
Tue 10:25:30 AM 35.7630 142.2470 61° Northeast 425 489 33,000  Level FlightAware ADS-B
Tue 10:26:10 AM 35.7990 142.3300 62° Northeast 425 489 33,000  Level FlightAware ADS-B
Tue 10:26:52 AM 35.8400 142.4220 61° Northeast 430 495 33,000  Level FlightAware ADS-B
Tue 10:27:40 AM 35.8860 142.5270 62° Northeast 430 495 33,000  Level FlightAware ADS-B
Tue 10:28:15 AM 35.9140 142.5920 62° Northeast 426 490 33,000  Level FlightAware ADS-B
Tue 10:29:02 AM 35.9630 142.7030 61° Northeast 426 490 33,000  Level FlightAware ADS-B
Tue 10:30:10 AM 36.0270 142.8500 62° Northeast 428 493 33,000  Level FlightAware ADS-B
Tue 10:30:51 AM 36.0630 142.9330 62° Northeast 429 494 33,000  Level FlightAware ADS-B
Tue 10:31:38 AM 36.1050 143.0340 63° Northeast 431 496 33,000  Level FlightAware ADS-B
Tue 10:32:14 AM 36.1430 143.1190 61° Northeast 433 498 33,000  Level FlightAware ADS-B
Tue 10:33:00 AM 36.1860 143.2200 62° Northeast 434 499 33,000  Level FlightAware ADS-B
Tue 10:33:41 AM 36.2200 143.3010 62° Northeast 434 499 33,000  Level FlightAware ADS-B
Tue 10:34:22 AM 36.2580 143.3900 62° Northeast 436 502 33,000  Level FlightAware ADS-B
Tue 10:35:08 AM 36.2940 143.4770 63° Northeast 436 502 33,000  Level FlightAware ADS-B
Tue 10:35:46 AM 36.3240 143.5490 63° Northeast 436 502 33,000  Level FlightAware ADS-B
Tue 10:36:34 AM 36.3610 143.6400 63° Northeast 436 502 33,000  Level FlightAware ADS-B
Tue 10:37:11 AM 36.3900 143.7100 63° Northeast 436 502 33,000  Level FlightAware ADS-B
Tue 10:38:11 AM 36.4360 143.8240 63° Northeast 436 502 33,000  Level FlightAware ADS-B
Tue 10:38:47 AM 36.4640 143.8920 63° Northeast 436 502 33,000  Level FlightAware ADS-B
Tue 10:39:22 AM 36.4920 143.9590 63° Northeast 436 502 33,000  Level FlightAware ADS-B
Tue 10:40:10 AM 36.5290 144.0500 63° Northeast 436 502 33,000  Level FlightAware ADS-B
Tue 10:41:00 AM 36.5680 144.1450 63° Northeast 436 502 33,000  Level FlightAware ADS-B
Tue 10:41:37 AM 36.5970 144.2160 63° Northeast 436 502 33,000  Level FlightAware ADS-B
Tue 10:42:23 AM 36.6330 144.3030 63° Northeast 436 502 33,000  Level FlightAware ADS-B
Tue 10:43:00 AM 36.6610 144.3740 64° Northeast 436 502 33,000  Level FlightAware ADS-B
Tue 10:45:00 AM 36.8687 144.5694 37° Northeast  Level Estimated
Tue 10:46:00 AM 36.9724 144.6674 37° Northeast  Level Estimated
Tue 10:47:00 AM 37.0760 144.7658 37° Northeast  Level Estimated
Tue 10:48:00 AM 37.1796 144.8644 37° Northeast  Level Estimated
Tue 10:49:00 AM 37.2830 144.9633 37° Northeast  Level Estimated
Tue 10:50:00 AM 37.3864 145.0625 37° Northeast  Level Estimated
Tue 10:51:00 AM 37.4897 145.1619 37° Northeast  Level Estimated
Tue 10:52:00 AM 37.5929 145.2616 37° Northeast  Level Estimated
Tue 10:53:00 AM 37.6960 145.3616 37° Northeast  Level Estimated
Tue 10:54:00 AM 37.7991 145.4618 38° Northeast  Level Estimated
Tue 10:55:00 AM 37.9021 145.5624 38° Northeast  Level Estimated
Tue 10:56:00 AM 38.0049 145.6632 38° Northeast  Level Estimated
Tue 10:57:00 AM 38.1077 145.7643 38° Northeast  Level Estimated
Tue 10:58:00 AM 38.2104 145.8657 38° Northeast  Level Estimated
Tue 10:59:00 AM 38.3131 145.9674 38° Northeast  Level Estimated
Tue 11:00:00 AM 38.4156 146.0694 38° Northeast  Level Estimated
Tue 11:01:00 AM 38.5180 146.1716 38° Northeast  Level Estimated
Tue 11:02:00 AM 38.6204 146.2742 38° Northeast  Level Estimated
Tue 11:03:00 AM 38.7226 146.3770 38° Northeast  Level Estimated
Tue 11:04:00 AM 38.8248 146.4801 38° Northeast  Level Estimated
Tue 11:05:00 AM 38.9269 146.5836 38° Northeast  Level Estimated
Tue 11:06:00 AM 39.0289 146.6873 38° Northeast  Level Estimated
Tue 11:07:00 AM 39.1308 146.7913 38° Northeast  Level Estimated
Tue 11:08:00 AM 39.2326 146.8957 38° Northeast  Level Estimated
Tue 11:09:00 AM 39.3343 147.0003 38° Northeast  Level Estimated
Tue 11:10:00 AM 39.4359 147.1052 39° Northeast  Level Estimated
Tue 11:11:00 AM 39.5374 147.2105 39° Northeast  Level Estimated
Tue 11:12:00 AM 39.6389 147.3160 39° Northeast  Level Estimated
Tue 11:13:00 AM 39.7402 147.4219 39° Northeast  Level Estimated
Tue 11:14:00 AM 39.8414 147.5281 39° Northeast  Level Estimated
Tue 11:15:00 AM 39.9426 147.6346 39° Northeast  Level Estimated
Tue 11:16:00 AM 40.0436 147.7413 39° Northeast  Level Estimated
Tue 11:17:00 AM 40.1446 147.8485 39° Northeast  Level Estimated
Tue 11:18:00 AM 40.2454 147.9559 39° Northeast  Level Estimated
Tue 11:19:00 AM 40.3461 148.0637 39° Northeast  Level Estimated
Tue 11:20:00 AM 40.4468 148.1718 39° Northeast  Level Estimated
Tue 11:21:00 AM 40.5473 148.2802 39° Northeast  Level Estimated
Tue 11:22:00 AM 40.6478 148.3889 39° Northeast  Level Estimated
Tue 11:23:00 AM 40.7481 148.4980 39° Northeast  Level Estimated
Tue 11:24:00 AM 40.8483 148.6073 40° Northeast  Level Estimated
Tue 11:25:00 AM 40.9485 148.7171 40° Northeast  Level Estimated
Tue 11:26:00 AM 41.0485 148.8271 40° Northeast  Level Estimated
Tue 11:27:00 AM 41.1484 148.9375 40° Northeast  Level Estimated
Tue 11:28:00 AM 41.2482 149.0482 40° Northeast  Level Estimated
Tue 11:29:00 AM 41.3479 149.1593 40° Northeast  Level Estimated
Tue 11:30:00 AM 41.4475 149.2707 40° Northeast  Level Estimated
Tue 11:31:00 AM 41.5470 149.3824 40° Northeast  Level Estimated
Tue 11:32:00 AM 41.6464 149.4945 40° Northeast  Level Estimated
Tue 11:33:00 AM 41.7457 149.6070 40° Northeast  Level Estimated
Tue 11:34:00 AM 41.8449 149.7197 40° Northeast  Level Estimated
Tue 11:35:00 AM 41.9439 149.8329 40° Northeast  Level Estimated
Tue 11:36:00 AM 42.0429 149.9464 40° Northeast  Level Estimated
Tue 11:37:00 AM 42.1417 150.0602 40° Northeast  Level Estimated
Tue 11:38:00 AM 42.2404 150.1744 41° Northeast  Level Estimated
Tue 11:39:00 AM 42.3391 150.2890 41° Northeast  Level Estimated
Tue 11:40:00 AM 42.4375 150.4039 41° Northeast  Level Estimated
Tue 11:41:00 AM 42.5359 150.5191 41° Northeast  Level Estimated
Tue 11:42:00 AM 42.6342 150.6348 41° Northeast  Level Estimated
Tue 11:43:00 AM 42.7323 150.7508 41° Northeast  Level Estimated
Tue 11:44:00 AM 42.8303 150.8671 41° Northeast  Level Estimated
Tue 11:45:00 AM 42.9283 150.9839 41° Northeast  Level Estimated
Tue 11:46:00 AM 43.0261 151.1010 41° Northeast  Level Estimated
Tue 11:47:00 AM 43.1237 151.2185 41° Northeast  Level Estimated
Tue 11:48:00 AM 43.2213 151.3363 41° Northeast  Level Estimated
Tue 11:49:00 AM 43.3187 151.4546 41° Northeast  Level Estimated
Tue 11:50:00 AM 43.4160 151.5732 42° Northeast  Level Estimated
Tue 11:51:00 AM 43.5132 151.6922 42° Northeast  Level Estimated
Tue 11:52:00 AM 43.6102 151.8116 42° Northeast  Level Estimated
Tue 11:53:00 AM 43.7072 151.9314 42° Northeast  Level Estimated
Tue 11:54:00 AM 43.8040 152.0515 42° Northeast  Level Estimated
Tue 11:55:00 AM 43.9007 152.1721 42° Northeast  Level Estimated
Tue 11:56:00 AM 43.9972 152.2930 42° Northeast  Level Estimated
Tue 11:57:00 AM 44.0937 152.4143 42° Northeast  Level Estimated
Tue 11:58:00 AM 44.1900 152.5361 42° Northeast  Level Estimated
Tue 11:59:00 AM 44.2861 152.6582 42° Northeast  Level Estimated
Tue 12:00:00 PM 44.3822 152.7807 42° Northeast  Level Estimated
Tue 12:01:00 PM 44.4781 152.9037 42° Northeast  Level Estimated
Tue 12:02:00 PM 44.5739 153.0270 43° Northeast  Level Estimated
Tue 12:03:00 PM 44.6695 153.1507 43° Northeast  Level Estimated
Tue 12:04:00 PM 44.7650 153.2749 43° Northeast  Level Estimated
Tue 12:05:00 PM 44.8604 153.3994 43° Northeast  Level Estimated
Tue 12:06:00 PM 44.9556 153.5244 43° Northeast  Level Estimated
Tue 12:07:00 PM 45.0507 153.6498 43° Northeast  Level Estimated
Tue 12:08:00 PM 45.1457 153.7756 43° Northeast  Level Estimated
Tue 12:09:00 PM 45.2405 153.9018 43° Northeast  Level Estimated
Tue 12:10:00 PM 45.3352 154.0285 43° Northeast  Level Estimated
Tue 12:11:00 PM 45.4297 154.1555 43° Northeast  Level Estimated
Tue 12:12:00 PM 45.5241 154.2831 43° Northeast  Level Estimated
Tue 12:13:00 PM 45.6184 154.4110 43° Northeast  Level Estimated
Tue 12:14:00 PM 45.7125 154.5393 44° Northeast  Level Estimated
Tue 12:15:00 PM 45.8065 154.6681 44° Northeast  Level Estimated
Tue 12:16:00 PM 45.9003 154.7973 44° Northeast  Level Estimated
Tue 12:17:00 PM 45.9940 154.9270 44° Northeast  Level Estimated
Tue 12:18:00 PM 46.0875 155.0571 44° Northeast  Level Estimated
Tue 12:19:00 PM 46.1809 155.1877 44° Northeast  Level Estimated
Tue 12:20:00 PM 46.2741 155.3186 44° Northeast  Level Estimated
Tue 12:21:00 PM 46.3672 155.4501 44° Northeast  Level Estimated
Tue 12:22:00 PM 46.4602 155.5820 44° Northeast  Level Estimated
Tue 12:23:00 PM 46.5530 155.7143 44° Northeast  Level Estimated
Tue 12:24:00 PM 46.6456 155.8471 45° Northeast  Level Estimated
Tue 12:25:00 PM 46.7381 155.9803 45° Northeast  Level Estimated
Tue 12:26:00 PM 46.8304 156.1140 45° Northeast  Level Estimated
Tue 12:27:00 PM 46.9226 156.2482 45° Northeast  Level Estimated
Tue 12:28:00 PM 47.0146 156.3828 45° Northeast  Level Estimated
Tue 12:29:00 PM 47.1064 156.5179 45° Northeast  Level Estimated
Tue 12:30:00 PM 47.1981 156.6534 45° Northeast  Level Estimated
Tue 12:31:00 PM 47.2896 156.7894 45° Northeast  Level Estimated
Tue 12:32:00 PM 47.3810 156.9259 45° Northeast  Level Estimated
Tue 12:33:00 PM 47.4722 157.0629 45° Northeast  Level Estimated
Tue 12:34:00 PM 47.5633 157.2003 46° Northeast  Level Estimated
Tue 12:35:00 PM 47.6541 157.3382 46° Northeast  Level Estimated
Tue 12:36:00 PM 47.7448 157.4766 46° Northeast  Level Estimated
Tue 12:37:00 PM 47.8354 157.6155 46° Northeast  Level Estimated
Tue 12:38:00 PM 47.9258 157.7549 46° Northeast  Level Estimated
Tue 12:39:00 PM 48.0160 157.8947 46° Northeast  Level Estimated
Tue 12:40:00 PM 48.1060 158.0351 46° Northeast  Level Estimated
Tue 12:41:00 PM 48.1959 158.1759 46° Northeast  Level Estimated
Tue 12:42:00 PM 48.2856 158.3172 46° Northeast  Level Estimated
Tue 12:43:00 PM 48.3751 158.4591 46° Northeast  Level Estimated
Tue 12:44:00 PM 48.4644 158.6014 47° Northeast  Level Estimated
Tue 12:45:00 PM 48.5536 158.7442 47° Northeast  Level Estimated
Tue 12:45:32 PM 47.5500 161.3333 53° Northeast 508 585 33,000  Level Anchorage Center
Tue 12:46:00 PM 48.6426 158.8875 47° Northeast  Level Estimated
Tue 12:47:00 PM 48.7314 159.0314 47° Northeast  Level Estimated
Tue 12:48:00 PM 48.8200 159.1757 47° Northeast  Level Estimated
Tue 12:49:00 PM 48.9085 159.3206 47° Northeast  Level Estimated
Tue 12:50:00 PM 48.9968 159.4659 47° Northeast  Level Estimated
Tue 12:51:00 PM 48.0588 162.3481 54° Northeast 508 585 33,000  Level FlightAware Transoceanic
Tue 12:51:36 PM 48.0667 162.4167 54° Northeast 503 579 33,000  Level Anchorage Center
Tue 12:52:00 PM 48.1427 162.5191 54° Northeast 508 585 33,000  Level FlightAware Transoceanic
Tue 12:53:00 PM 48.2264 162.6907 54° Northeast 508 585 33,000  Level FlightAware Transoceanic
Tue 12:54:00 PM 48.3098 162.8629 54° Northeast 508 585 33,000  Level FlightAware Transoceanic
Tue 12:55:00 PM 48.3930 163.0356 54° Northeast 508 585 33,000  Level FlightAware Transoceanic
Tue 12:56:00 PM 48.4759 163.2090 54° Northeast 508 585 33,000  Level FlightAware Transoceanic
Tue 12:57:00 PM 48.5650 163.4456 54° Northeast 503 579 33,000  Level FlightAware Transoceanic
Tue 12:58:00 PM 48.6472 163.6190 54° Northeast 503 579 33,000  Level FlightAware Transoceanic
Tue 12:59:00 PM 48.7291 163.7930 55° Northeast 503 579 33,000  Level FlightAware Transoceanic
Tue 01:00:00 PM 48.8107 163.9676 55° Northeast 503 579 33,000  Level FlightAware Transoceanic
Tue 01:01:00 PM 48.8921 164.1428 55° Northeast 503 579 33,000  Level FlightAware Transoceanic
Tue 01:01:16 PM 48.8000 164.0667 54° Northeast 500 575 33,000  Level Anchorage Center
Tue 01:02:00 PM 48.9732 164.3185 55° Northeast 503 579 33,000  Level FlightAware Transoceanic
Tue 01:03:00 PM 49.0541 164.4948 55° Northeast 503 579 33,000  Level FlightAware Transoceanic
Tue 01:04:00 PM 49.1346 164.6716 55° Northeast 503 579 33,000  Level FlightAware Transoceanic
Tue 01:05:00 PM 49.2149 164.8491 55° Northeast 503 579 33,000  Level FlightAware Transoceanic
Tue 01:06:00 PM 49.2950 165.0271 56° Northeast 503 579 33,000  Level FlightAware Transoceanic
Tue 01:07:00 PM 49.2757 165.0960 55° Northeast 500 575 33,000  Level FlightAware Transoceanic
Tue 01:08:00 PM 49.3541 165.2695 55° Northeast 500 575 33,000  Level FlightAware Transoceanic
Tue 01:09:00 PM 49.4322 165.4435 55° Northeast 500 575 33,000  Level FlightAware Transoceanic
Tue 01:10:00 PM 49.5101 165.6181 56° Northeast 500 575 33,000  Level FlightAware Transoceanic
Tue 01:10:49 PM 49.5167 165.7667 55° Northeast 498 573 33,000  Level Anchorage Center
Tue 01:11:00 PM 49.5877 165.7932 56° Northeast 500 575 33,000  Level FlightAware Transoceanic
Tue 01:12:00 PM 49.6651 165.9689 56° Northeast 500 575 33,000  Level FlightAware Transoceanic
Tue 01:13:00 PM 49.7421 166.1452 56° Northeast 500 575 33,000  Level FlightAware Transoceanic
Tue 01:13:13 PM 49.7000 166.2167 55° Northeast 501 577 33,000  Level Anchorage Center
Tue 01:14:00 PM 49.8189 166.3220 56° Northeast 500 575 33,000  Level FlightAware Transoceanic
Tue 01:15:00 PM 49.8955 166.4993 56° Northeast 500 575 33,000  Level FlightAware Transoceanic
Tue 01:16:00 PM 49.9717 166.6773 56° Northeast 500 575 33,000  Level FlightAware Transoceanic
Tue 01:17:00 PM 49.9866 166.8313 56° Northeast 498 573 33,000  Level FlightAware Transoceanic
Tue 01:18:00 PM 50.0639 167.0108 56° Northeast 498 573 33,000  Level FlightAware Transoceanic
Tue 01:19:00 PM 50.1733 167.3017 56° Northeast 501 577 33,000  Level FlightAware Transoceanic
Tue 01:20:00 PM 50.2512 167.4846 56° Northeast 501 577 33,000  Level FlightAware Transoceanic
Tue 01:20:28 PM 50.2000 167.5167 56° Northeast 500 575 33,000  Level Anchorage Center
Tue 01:21:00 PM 50.3288 167.6681 57° Northeast 501 577 33,000  Level FlightAware Transoceanic
Tue 01:22:00 PM 50.4062 167.8522 57° Northeast 501 577 33,000  Level FlightAware Transoceanic
Tue 01:23:00 PM 50.4832 168.0369 57° Northeast 501 577 33,000  Level FlightAware Transoceanic
Tue 01:24:00 PM 50.5599 168.2222 57° Northeast 501 577 33,000  Level FlightAware Transoceanic
Tue 01:25:00 PM 50.6364 168.4081 57° Northeast 501 577 33,000  Level FlightAware Transoceanic
Tue 01:26:00 PM 50.6568 168.5885 57° Northeast 500 575 33,000  Level FlightAware Transoceanic
Tue 01:27:00 PM 50.7319 168.7692 57° Northeast 500 575 33,000  Level FlightAware Transoceanic
Tue 01:28:00 PM 50.8068 168.9504 57° Northeast 500 575 33,000  Level FlightAware Transoceanic
Tue 01:28:50 PM 50.7833 169.1000 58° Northeast 510 587 33,000  Level Anchorage Center
Tue 01:29:00 PM 50.8814 169.1322 57° Northeast 500 575 33,000  Level FlightAware Transoceanic
Tue 01:29:50 PM 50.8500 169.2667 58° Northeast 510 587 33,000  Level Anchorage Center
Tue 01:30:00 PM 50.9557 169.3146 57° Northeast 500 575 33,000  Level FlightAware Transoceanic
Tue 01:30:50 PM 50.9167 169.4833 64° Northeast 500 575 33,000  Level Anchorage Center
Tue 01:31:00 PM 51.0298 169.4976 57° Northeast 500 575 33,000  Level FlightAware Transoceanic
Tue 01:31:50 PM 50.9833 169.6500 58° Northeast 510 587 33,000  Level Anchorage Center
Tue 01:32:00 PM 51.1035 169.6812 57° Northeast 500 575 33,000  Level FlightAware Transoceanic
Tue 01:32:50 PM 51.0500 169.8500 62° Northeast 510 587 33,000  Level Anchorage Center
Tue 01:33:00 PM 51.1770 169.8653 58° Northeast 500 575 33,000  Level FlightAware Transoceanic
Tue 01:33:50 PM 51.1333 170.0667 58° Northeast 520 598 33,000  Level Anchorage Center
Tue 01:34:00 PM 51.2501 170.0500 58° Northeast 500 575 33,000  Level FlightAware Transoceanic
Tue 01:34:50 PM 51.1833 170.2500 66° East 520 598 33,000  Level Anchorage Center
Tue 01:35:50 PM 51.2667 170.4500 56° Northeast 510 587 33,000  Level Anchorage Center
Tue 01:36:50 PM 51.3167 170.6333 66° East 520 598 33,000  Level Anchorage Center
Tue 01:37:51 PM 51.4000 170.8500 58° Northeast 510 587 33,000  Level Anchorage Center
Tue 01:38:51 PM 51.4500 171.0333 66° East 520 598 33,000  Level Anchorage Center
Tue 01:39:51 PM 51.5333 171.2500 58° Northeast 520 598 33,000  Level Anchorage Center
Tue 01:40:51 PM 51.6000 171.4000 54° Northeast 520 598 33,000  Level Anchorage Center
Tue 01:41:51 PM 51.7000 171.6167 53° Northeast 520 598 33,000  Level Anchorage Center
Tue 01:42:51 PM 51.7833 171.8167 56° Northeast 510 587 33,000  Level Anchorage Center
Tue 01:43:51 PM 51.8500 171.9833 57° Northeast 520 598 33,000  Level Anchorage Center
Tue 01:44:51 PM 51.9500 172.1833 51° Northeast 520 598 33,000  Level Anchorage Center
Tue 01:45:51 PM 52.0167 172.3667 59° Northeast 530 610 33,000  Level Anchorage Center
Tue 01:46:51 PM 52.1167 172.5667 51° Northeast 520 598 33,000  Level Anchorage Center
Tue 01:47:51 PM 52.1833 172.7500 59° Northeast 520 598 33,000  Level Anchorage Center
Tue 01:48:51 PM 52.2667 172.9667 58° Northeast 530 610 33,000  Level Anchorage Center
Tue 01:50:00 PM 52.3517 173.1678 55° Northeast  Level FlightAware Approximate
Tue 01:50:51 PM 52.4333 173.3500 55° Northeast 530 610 33,000  Level Anchorage Center
Tue 01:51:51 PM 52.5167 173.5667 58° Northeast 530 610 33,000  Level Anchorage Center
Tue 01:52:51 PM 52.6000 173.7500 53° Northeast 530 610 33,000  Level Anchorage Center
Tue 01:53:52 PM 52.6667 173.9333 59° Northeast 530 610 33,000  Level Anchorage Center
Tue 01:55:00 PM 52.7485 174.1333 58° Northeast  Level FlightAware Approximate
Tue 01:56:52 PM 52.9167 174.5833 58° Northeast 540 621 33,000  Level Anchorage Center
Tue 01:57:52 PM 52.9833 174.7667 59° Northeast 540 621 33,000  Level Anchorage Center
Tue 01:58:52 PM 53.0833 175.0000 54° Northeast 540 621 33,000  Level Anchorage Center
Tue 01:59:52 PM 53.1667 175.2333 59° Northeast 540 621 33,000  Level Anchorage Center
Tue 02:00:52 PM 53.2333 175.4333 61° Northeast 540 621 33,000  Level Anchorage Center
Tue 02:01:52 PM 53.3167 175.6667 59° Northeast 540 621 33,000  Level Anchorage Center
Tue 02:02:00 PM 53.2239 175.4089 58° Northeast  Level FlightAware Approximate
Tue 02:02:52 PM 53.3833 175.8500 59° Northeast 550 633 33,000  Level Anchorage Center
Tue 02:03:52 PM 53.4667 176.0833 59° Northeast 540 621 33,000  Level Anchorage Center
Tue 02:04:52 PM 53.5333 176.2667 58° Northeast 540 621 33,000  Level Anchorage Center
Tue 02:05:52 PM 53.6167 176.5167 61° Northeast 550 633 33,000  Level Anchorage Center
Tue 02:06:52 PM 53.6833 176.7167 61° Northeast 540 621 33,000  Level Anchorage Center
Tue 02:07:52 PM 53.7667 176.9500 59° Northeast 550 633 33,000  Level Anchorage Center
Tue 02:08:53 PM 53.8500 177.1833 59° Northeast 540 621 33,000  Level Anchorage Center
Tue 02:09:52 PM 53.9167 177.3833 60° Northeast 540 621 33,000  Level Anchorage Center
Tue 02:10:53 PM 54.0000 177.6333 60° Northeast 540 621 33,000  Level Anchorage Center
Tue 02:11:53 PM 54.0667 177.8333 60° Northeast 540 621 33,000  Level Anchorage Center
Tue 02:12:53 PM 54.1500 178.0667 59° Northeast 540 621 33,000  Level Anchorage Center
Tue 02:13:53 PM 54.2167 178.2667 60° Northeast 540 621 33,000  Level Anchorage Center
Tue 02:14:53 PM 54.2833 178.5167 65° Northeast 540 621 33,000  Level Anchorage Center
Tue 02:15:53 PM 54.3500 178.7167 60° Northeast 530 610 33,000  Level Anchorage Center
Tue 02:17:59 PM 54.5167 179.2167 62° Northeast 541 623 33,000  Level Anchorage Center
Tue 02:24:00 PM 54.9098 -179.4894 63° Northeast 541 623 33,000  Level FlightAware Transoceanic
Tue 02:25:00 PM 54.9740 -179.2713 63° Northeast 541 623 33,000  Level FlightAware Transoceanic
Tue 02:26:00 PM 55.0378 -179.0525 63° Northeast 541 623 33,000  Level FlightAware Transoceanic
Tue 02:27:00 PM 55.1012 -178.8330 63° Northeast 541 623 33,000  Level FlightAware Transoceanic
Tue 02:27:38 PM 55.1667 -178.6167 64° Northeast 510 587 33,000  Level Anchorage Center
Tue 02:27:59 PM 55.2000 -178.5333 64° Northeast 514 592 33,000  Level Anchorage Center
Tue 02:28:00 PM 55.1642 -178.6128 64° Northeast 541 623 33,000  Level FlightAware Transoceanic
Tue 02:29:00 PM 55.2268 -178.3919 64° Northeast 541 623 33,000  Level FlightAware Transoceanic
Tue 02:30:00 PM 55.2890 -178.1703 64° Northeast 541 623 33,000  Level FlightAware Transoceanic
Tue 02:31:00 PM 55.3508 -177.9481 64° Northeast 541 623 33,000  Level FlightAware Transoceanic
Tue 02:32:00 PM 55.4122 -177.7251 64° Northeast 541 623 33,000  Level FlightAware Transoceanic
Tue 02:33:00 PM 55.5260 -177.3168 65° Northeast 510 587 33,000  Level FlightAware Transoceanic
Tue 02:34:00 PM 55.5629 -177.2093 65° Northeast 514 592 33,000  Level FlightAware Transoceanic
Tue 02:35:00 PM 55.6219 -176.9863 65° Northeast 514 592 33,000  Level FlightAware Transoceanic
Tue 02:36:00 PM 55.6806 -176.7625 65° Northeast 514 592 33,000  Level FlightAware Transoceanic
Tue 02:36:59 PM 55.7333 -176.5000 66° East 490 564 33,000  Level Anchorage Center
Tue 02:37:00 PM 55.7388 -176.5382 65° Northeast 514 592 33,000  Level FlightAware Transoceanic
Tue 02:37:59 PM 55.7833 -176.2833 68° East 500 575 33,000  Level Anchorage Center
Tue 02:38:00 PM 55.7967 -176.3131 66° East 514 592 33,000  Level FlightAware Transoceanic
Tue 02:38:59 PM 55.8500 -176.0667 61° Northeast 490 564 33,000  Level Anchorage Center
Tue 02:39:00 PM 55.8541 -176.0874 66° East 514 592 33,000  Level FlightAware Transoceanic
Tue 02:39:59 PM 55.9000 -175.8333 69° East 490 564 33,000  Level Anchorage Center
Tue 02:40:00 PM 55.9112 -175.8611 66° East 514 592 33,000  Level FlightAware Transoceanic
Tue 02:40:59 PM 55.9667 -175.6167 61° Northeast 490 564 33,000  Level Anchorage Center
Tue 02:41:00 PM 55.9678 -175.6340 66° East 514 592 33,000  Level FlightAware Transoceanic
Tue 02:41:59 PM 56.0167 -175.3833 69° East 490 564 33,000  Level Anchorage Center
Tue 02:42:00 PM 56.0240 -175.4063 66° East 514 592 33,000  Level FlightAware Transoceanic
Tue 02:42:59 PM 56.0667 -175.1667 67° East 490 564 33,000  Level Anchorage Center
Tue 02:44:00 PM 56.1167 -174.9333 69° East 490 564 33,000  Level Anchorage Center
Tue 02:45:00 PM 56.1833 -174.7167 61° Northeast 480 552 33,000  Level Anchorage Center
Tue 02:46:00 PM 56.2333 -174.5000 67° East 480 552 33,000  Level Anchorage Center
Tue 02:47:00 PM 56.2667 -174.3167 72° East 480 552 33,000  Level Anchorage Center
Tue 02:48:00 PM 56.3333 -174.0833 63° Northeast 480 552 33,000  Level Anchorage Center
Tue 02:49:00 PM 56.3833 -173.8667 67° East 480 552 33,000  Level Anchorage Center
Tue 02:50:00 PM 56.4333 -173.6333 69° East 490 564 33,000  Level Anchorage Center
Tue 02:51:00 PM 56.4833 -173.4000 69° East 480 552 33,000  Level Anchorage Center
Tue 02:52:00 PM 56.5333 -173.1833 67° East 480 552 33,000  Level Anchorage Center
Tue 02:53:00 PM 56.5833 -172.9500 69° East 480 552 33,000  Level Anchorage Center
Tue 02:54:00 PM 56.6333 -172.7333 67° East 470 541 33,000  Level Anchorage Center
Tue 02:55:00 PM 56.6833 -172.5000 69° East 480 552 33,000  Level Anchorage Center
Tue 02:56:00 PM 56.7333 -172.2667 69° East 470 541 33,000  Level Anchorage Center
Tue 02:57:00 PM 56.7833 -172.0500 67° East 480 552 33,000  Level Anchorage Center
Tue 02:58:00 PM 56.8289 -171.8310 69° East  Level FlightAware Approximate
Tue 02:58:00 PM 56.8333 -171.8167 69° East 480 552 33,000  Level Anchorage Center
Tue 02:59:00 PM 56.8833 -171.5833 68° East 480 552 33,000  Level Anchorage Center
Tue 03:00:00 PM 56.9333 -171.3500 68° East 490 564 33,000  Level Anchorage Center
Tue 03:01:01 PM 56.9667 -171.1167 75° East 480 552 33,000  Level Anchorage Center
Tue 03:02:01 PM 57.0167 -170.8833 68° East 490 564 33,000  Level Anchorage Center
Tue 03:03:00 PM 57.0667 -170.6333 70° East 490 564 33,000  Level Anchorage Center
Tue 03:04:51 PM 57.1500 -170.2333 68° East 490 564 33,000  Level Anchorage Center
Tue 03:05:58 PM 57.2167 -169.9500 68° East 491 565 33,000  Level Anchorage Center
Tue 03:06:41 PM 57.2500 -169.7667 69° East 480 552 33,000  Level Anchorage Center
Tue 03:07:41 PM 57.2833 -169.5333 75° East 490 564 33,000  Level Anchorage Center
Tue 03:08:41 PM 57.3333 -169.2833 70° East 490 564 33,000  Level Anchorage Center
Tue 03:09:41 PM 57.3833 -169.0500 68° East 480 552 33,000  Level Anchorage Center
Tue 03:10:41 PM 57.4333 -168.8000 70° East 490 564 33,000  Level Anchorage Center
Tue 03:11:00 PM 57.4611 -168.8003 69° East 490 564 33,000  Level FlightAware Transoceanic
Tue 03:11:41 PM 57.4667 -168.5667 75° East 490 564 33,000  Level Anchorage Center
Tue 03:12:00 PM 57.5220 -168.5209 69° East 491 565 33,000  Level FlightAware Transoceanic
Tue 03:12:41 PM 57.5167 -168.3167 69° East 490 564 33,000  Level Anchorage Center
Tue 03:13:41 PM 57.5667 -168.0833 68° East 490 564 33,000  Level Anchorage Center
Tue 03:14:41 PM 57.6000 -167.8333 76° East 490 564 33,000  Level Anchorage Center
Tue 03:15:41 PM 57.6500 -167.5833 69° East 490 564 33,000  Level Anchorage Center
Tue 03:16:41 PM 57.7000 -167.3500 68° East 490 564 33,000  Level Anchorage Center
Tue 03:17:41 PM 57.7333 -167.1000 76° East 490 564 33,000  Level Anchorage Center
Tue 03:18:42 PM 57.7833 -166.8500 69° East 490 564 33,000  Level Anchorage Center
Tue 03:19:42 PM 57.8167 -166.6167 75° East 480 552 33,000  Level Anchorage Center
Tue 03:20:42 PM 57.8667 -166.3667 69° East 480 552 33,000  Level Anchorage Center
Tue 03:21:42 PM 57.9000 -166.1333 75° East 480 552 33,000  Level Anchorage Center
Tue 03:22:42 PM 57.9500 -165.8833 69° East 490 564 33,000  Level Anchorage Center
Tue 03:23:42 PM 57.9833 -165.6500 75° East 480 552 33,000  Level Anchorage Center
Tue 03:24:42 PM 58.0167 -165.4000 76° East 480 552 33,000  Level Anchorage Center
Tue 03:25:42 PM 58.0667 -165.1500 69° East 480 552 33,000  Level Anchorage Center
Tue 03:26:42 PM 58.1000 -164.9167 75° East 470 541 33,000  Level Anchorage Center
Tue 03:27:42 PM 58.1500 -164.6833 68° East 470 541 33,000  Level Anchorage Center
Tue 03:28:42 PM 58.2000 -164.4500 68° East 480 552 33,000  Level Anchorage Center
Tue 03:29:42 PM 58.2500 -164.2000 69° East 470 541 33,000  Level Anchorage Center
Tue 03:30:45 PM 58.3000 -163.9667 68° East 480 552 33,000  Level Anchorage Center
Tue 03:31:45 PM 58.3500 -163.7333 68° East 470 541 33,000  Level Anchorage Center
Tue 03:32:45 PM 58.3833 -163.5000 75° East 470 541 33,000  Level Anchorage Center
Tue 03:33:46 PM 58.4333 -163.2500 69° East 480 552 33,000  Level Anchorage Center
Tue 03:34:46 PM 58.4833 -163.0167 68° East 470 541 33,000  Level Anchorage Center
Tue 03:35:46 PM 58.5167 -162.7833 75° East 480 552 33,000  Level Anchorage Center
Tue 03:36:47 PM 58.5667 -162.5333 69° East 470 541 33,000  Level Anchorage Center
Tue 03:37:47 PM 58.6167 -162.3000 68° East 490 564 33,000  Level Anchorage Center
Tue 03:38:47 PM 58.6833 -162.0833 59° Northeast 470 541 33,000  Level Anchorage Center
Tue 03:39:47 PM 58.7500 -161.8333 63° Northeast 460 529 33,000  Level Anchorage Center
Tue 03:40:48 PM 58.8167 -161.6000 61° Northeast 470 541 33,000  Level Anchorage Center
Tue 03:41:48 PM 58.8667 -161.3667 67° East 480 552 33,000  Level Anchorage Center
Tue 03:42:48 PM 58.9333 -161.1333 61° Northeast 480 552 33,000  Level Anchorage Center
Tue 03:43:49 PM 58.9833 -160.9000 67° East 480 552 33,000  Level Anchorage Center
Tue 03:44:49 PM 59.0500 -160.6667 61° Northeast 470 541 33,000  Level Anchorage Center
Tue 03:45:49 PM 59.1000 -160.4333 67° East 480 552 33,000  Level Anchorage Center
Tue 03:46:50 PM 59.1500 -160.2000 67° East 470 541 33,000  Level Anchorage Center
Tue 03:47:50 PM 59.2167 -159.9500 62° Northeast 480 552 33,000  Level Anchorage Center
Tue 03:48:50 PM 59.2667 -159.7167 67° East 480 552 33,000  Level Anchorage Center
Tue 03:49:50 PM 59.3333 -159.4833 61° Northeast 480 552 33,000  Level Anchorage Center
Tue 03:50:51 PM 59.3833 -159.2333 68° East 470 541 33,000  Level Anchorage Center
Tue 03:51:51 PM 59.4333 -159.0000 67° East 480 552 33,000  Level Anchorage Center
Tue 03:52:51 PM 59.4833 -158.7500 68° East 470 541 33,000  Level Anchorage Center
Tue 03:53:52 PM 59.5500 -158.5167 61° Northeast 470 541 33,000  Level Anchorage Center
Tue 03:54:52 PM 59.6000 -158.2833 67° East 470 541 33,000  Level Anchorage Center
Tue 03:55:53 PM 59.6500 -158.0500 67° East 470 541 33,000  Level Anchorage Center
Tue 03:56:53 PM 59.7000 -157.8000 68° East 470 541 33,000  Level Anchorage Center
Tue 03:57:53 PM 59.7500 -157.5500 68° East 470 541 33,000  Level Anchorage Center
Tue 03:58:53 PM 59.8000 -157.3167 67° East 470 541 33,000  Level Anchorage Center
Tue 03:59:54 PM 59.8500 -157.0667 68° East 470 541 33,000  Level Anchorage Center
Tue 04:00:54 PM 59.9000 -156.8167 68° East 480 552 33,000  Level Anchorage Center
Tue 04:01:54 PM 59.9500 -156.5833 67° East 470 541 33,000  Level Anchorage Center
Tue 04:02:55 PM 60.0000 -156.3333 68° East 470 541 33,000  Level Anchorage Center
Tue 04:03:55 PM 60.0500 -156.1000 67° East 460 529 33,000  Level Anchorage Center
Tue 04:04:55 PM 60.0833 -155.8500 75° East 470 541 33,000  Level Anchorage Center
Tue 04:05:56 PM 60.1333 -155.6000 68° East 460 529 33,000  Level Anchorage Center
Tue 04:11:53 PM 60.4250 -154.1080 68° East 468 539 33,000  Level FlightAware ADS-B
Tue 04:12:29 PM 60.4520 -153.9580 70° East 469 540 33,000 -659 Level FlightAware ADS-B
Tue 04:13:15 PM 60.4860 -153.7610 71° East 472 543 32,100 -1,568 Descending FlightAware ADS-B
Tue 04:13:57 PM 60.5160 -153.5860 71° East 460 529 30,700 -1,953 Descending FlightAware ADS-B
Tue 04:14:41 PM 60.5460 -153.4120 71° East 454 522 29,300 -1,913 Descending FlightAware ADS-B
Tue 04:15:06 PM 60.5630 -153.3130 71° East 452 520 28,500 -1,935 Descending FlightAware ADS-B
Tue 04:15:43 PM 60.5870 -153.1670 71° East 450 518 27,300 -1,975 Descending FlightAware ADS-B
Tue 04:16:25 PM 60.6160 -152.9950 71° East 447 514 25,900 -1,950 Descending FlightAware ADS-B
Tue 04:17:03 PM 60.6410 -152.8440 71° East 446 513 24,700 -1,468 Descending FlightAware ADS-B
Tue 04:17:59 PM 60.6760 -152.6360 71° East 444 511 23,600 -2,039 Descending FlightAware ADS-B
Tue 04:18:46 PM 60.7070 -152.4390 72° East 439 505 21,200 -2,345 Descending FlightAware ADS-B
Tue 04:19:26 PM 60.7320 -152.2830 72° East 426 490 20,200 -1,816 Descending FlightAware ADS-B
Tue 04:20:02 PM 60.7540 -152.1490 71° East 419 482 18,900 -2,122 Descending FlightAware ADS-B
Tue 04:20:48 PM 60.7810 -151.9770 72° East 408 470 17,300 -1,977 Descending FlightAware ADS-B
Tue 04:21:30 PM 60.8050 -151.8230 72° East 396 456 16,000 -2,093 Descending FlightAware ADS-B
Tue 04:22:14 PM 60.8290 -151.6680 72° East 393 452 14,300 -2,651 Descending FlightAware ADS-B
Tue 04:22:56 PM 60.8520 -151.5180 72° East 399 459 12,200 -2,850 Descending FlightAware ADS-B
Tue 04:23:34 PM 60.8740 -151.3790 72° East 397 457 10,500 -1,429 Descending FlightAware ADS-B
Tue 04:24:20 PM 60.9050 -151.2300 67° East 352 405 10,200 -220 Descending FlightAware ADS-B
Tue 04:24:56 PM 60.9270 -151.1260 66° East 313 360 10,200 -81 Level FlightAware ADS-B
Tue 04:25:34 PM 60.9470 -151.0320 66° East 280 322 10,100 -517 Descending FlightAware ADS-B
Tue 04:25:54 PM 60.9580 -150.9800 66° East 278 320 9,700 -1,091 Descending FlightAware ADS-B
Tue 04:26:18 PM 60.9700 -150.9240 66° East 274 315 9,300 -1,000 Descending FlightAware ADS-B
Tue 04:26:30 PM 60.9750 -150.8960 70° East 274 315 9,100 -955 Descending FlightAware ADS-B
Tue 04:27:02 PM 60.9910 -150.8200 67° East 270 311 8,600 -968 Descending FlightAware ADS-B
Tue 04:27:32 PM 61.0070 -150.7470 66° East 267 307 8,100 -964 Descending FlightAware ADS-B
Tue 04:27:58 PM 61.0190 -150.6880 67° East 265 305 7,700 -964 Descending FlightAware ADS-B
Tue 04:28:28 PM 61.0330 -150.6200 67° East 261 300 7,200 -1,034 Descending FlightAware ADS-B
Tue 04:28:56 PM 61.0470 -150.5540 66° East 260 299 6,700 -1,038 Descending FlightAware ADS-B
Tue 04:29:20 PM 61.0580 -150.5020 66° East 259 298 6,300 -1,043 Descending FlightAware ADS-B
Tue 04:29:42 PM 61.0680 -150.4520 68° East 256 295 5,900 -923 Descending FlightAware ADS-B
Tue 04:29:59 PM 61.0750 -150.4150 69° East 255 293 5,700 -857 Descending FlightAware ADS-B
Tue 04:30:24 PM 61.0870 -150.3580 66° East 253 291 5,300 -588 Descending FlightAware ADS-B
Tue 04:30:50 PM 61.0990 -150.3000 67° East 250 288 5,200 -158 Descending FlightAware ADS-B
Tue 04:31:02 PM 61.1040 -150.2740 68° East 250 288 5,200  Level FlightAware ADS-B
Tue 04:31:30 PM 61.1180 -150.2110 65° Northeast 252 290 5,200  Level FlightAware ADS-B
Tue 04:31:50 PM 61.1340 -150.1820 41° Northeast 263 303 5,200  Level FlightAware ADS-B
Tue 04:31:58 PM 61.1450 -150.1770 12° North 268 308 5,200  Level FlightAware ADS-B
Tue 04:32:30 PM 61.1840 -150.1910 350° North 277 319 5,200  Level FlightAware ADS-B
Tue 04:32:46 PM 61.2040 -150.2000 348° North 276 318 5,200  Level FlightAware ADS-B
Tue 04:33:14 PM 61.2390 -150.2160 348° North 279 321 5,200  Level FlightAware ADS-B
Tue 04:33:26 PM 61.2540 -150.2220 349° North 279 321 5,200  Level FlightAware ADS-B
Tue 04:33:54 PM 61.2890 -150.2380 348° North 264 304 5,200  Level FlightAware ADS-B
Tue 04:34:24 PM 61.3230 -150.2540 347° North 236 272 5,200  Level FlightAware ADS-B
Tue 04:34:52 PM 61.3510 -150.2660 348° North 229 264 5,200 -214 Level FlightAware ADS-B
Tue 04:35:20 PM 61.3810 -150.2790 348° North 224 258 5,000 -735 Descending FlightAware ADS-B
Tue 04:35:41 PM 61.4010 -150.2860 350° North 222 255 4,600 -1,091 Descending FlightAware ADS-B
Tue 04:36:04 PM 61.4210 -150.2630 29° Northeast 201 231 4,200 -1,029 Descending FlightAware ADS-B
Tue 04:36:16 PM 61.4240 -150.2410 74° East 192 221 4,000 -923 Descending FlightAware ADS-B
Tue 04:36:43 PM 61.4140 -150.2000 117° Southeast 182 209 3,600 -714 Descending FlightAware ADS-B
Tue 04:36:58 PM 61.4040 -150.1820 139° Southeast 184 212 3,500 -439 Descending FlightAware ADS-B
Tue 04:37:24 PM 61.3890 -150.1540 138° Southeast 189 217 3,300 -450 Descending FlightAware ADS-B
Tue 04:37:38 PM 61.3790 -150.1340 136° Southeast 189 217 3,200 -154 Descending FlightAware ADS-B
Tue 04:38:03 PM 61.3630 -150.1070 141° Southeast 179 206 3,200  Level FlightAware ADS-B
Tue 04:38:18 PM 61.3540 -150.1020 165° South 176 203 3,200  Level FlightAware ADS-B
Tue 04:38:33 PM 61.3400 -150.0940 165° South 163 188 3,200 -150 Level FlightAware ADS-B
Tue 04:38:58 PM 61.3220 -150.0840 165° South 160 184 3,100 -667 Descending FlightAware ADS-B
Tue 04:39:27 PM 61.3020 -150.0720 164° South 160 184 2,600 -1,000 Descending FlightAware ADS-B
Tue 04:39:52 PM 61.2840 -150.0620 165° South 158 182 2,200 -811 Descending FlightAware ADS-B
Tue 04:40:04 PM 61.2760 -150.0570 163° South 155 178 2,100 -857 Descending FlightAware ADS-B
Tue 04:40:34 PM 61.2540 -150.0450 165° South 154 177 1,600 -1,000 Descending FlightAware ADS-B
Tue 04:40:58 PM 61.2390 -150.0370 166° South 144 166 1,200 -808 Descending FlightAware ADS-B
Tue 04:41:26 PM 61.2210 -150.0270 165° South 142 163 900 -778 Descending FlightAware ADS-B
Tue 04:41:52 PM 61.2040 -150.0170 164° South 147 169 500 -947 Descending FlightAware ADS-B
Tue 04:42:04 PM 61.1960 -150.0130 166° South 147 169 300 -1,000 Descending FlightAware ADS-B
Tue 04:42:44 PM 61.1800 -150.0040 165° South 37 43 -450 Descending FlightAware ADS-B
Tue 04:43:04 PM 61.1780 -150.0000 136° Southeast 19 22  Level FlightAware ADS-B
Tue 04:43:46 PM 61.1790 -150.0000 360° North 32 37  Level FlightAware ADS-B
Tue 04:44:14 PM 61.1820 -150.0010 351° North 18 21  Level FlightAware ADS-B
Tue 04:44:35 PM 61.1800 -150.0000 166° South 147 169  Level FlightAware ADS-B
Tue 04:45:01 PM 61.1650 -149.9920 166° South 147 169  Level FlightAware ADS-B
Tue 04:45:32 PM 61.1880 -150.0040 346° North 16 18  Level FlightAware ADS-B
Tue 04:45:56 PM 61.1900 -150.0050 346° North 16 18  Level FlightAware ADS-B
Tue 04:46:09 PM 61.1910 -150.0060 334° Northwest 33 38  Level FlightAware ADS-B

Login

Don't have an account? Register now (free) for customized features, flight alerts, and more!